createdAt,value
2023-01-17T00:01:52.577Z,2.89
2023-01-17T00:04:20.407Z,2.75
2023-01-17T00:06:48.757Z,2.71
2023-01-17T00:09:17.713Z,2.74
2023-01-17T00:11:46.724Z,2.76
2023-01-17T00:14:14.759Z,2.73
2023-01-17T00:16:43.220Z,2.74
2023-01-17T00:19:10.790Z,2.64
2023-01-17T00:21:38.695Z,2.63
2023-01-17T00:24:08.555Z,2.61
2023-01-17T00:26:38.431Z,2.58
2023-01-17T00:29:05.956Z,2.60
2023-01-17T00:31:34.348Z,2.51
2023-01-17T00:34:01.907Z,2.54
2023-01-17T00:36:29.915Z,2.60
2023-01-17T00:38:57.294Z,2.68
2023-01-17T00:41:29.150Z,2.58
2023-01-17T00:43:58.263Z,2.48
2023-01-17T00:46:26.460Z,2.35
2023-01-17T00:48:54.381Z,2.37
2023-01-17T00:51:23.435Z,2.45
2023-01-17T00:53:50.981Z,2.43
2023-01-17T00:56:18.922Z,2.43
2023-01-17T00:58:46.622Z,2.35
2023-01-17T01:01:16.386Z,2.39
2023-01-17T01:03:43.918Z,2.41
2023-01-17T01:06:12.284Z,2.38
2023-01-17T01:08:40.139Z,2.50
2023-01-17T01:11:10.987Z,2.50
2023-01-17T01:13:38.572Z,2.47
2023-01-17T01:16:07.259Z,2.42
2023-01-17T01:18:36.718Z,2.35
2023-01-17T01:21:05.078Z,2.40
2023-01-17T01:23:32.725Z,2.38
2023-01-17T01:26:03.385Z,2.32
2023-01-17T01:28:31.121Z,2.27
2023-01-17T01:30:59.827Z,2.42
2023-01-17T01:33:27.469Z,2.43
2023-01-17T01:35:57.155Z,2.39
2023-01-17T01:38:25.672Z,2.42
2023-01-17T01:40:55.551Z,2.80
2023-01-17T01:43:44.115Z,3.11
2023-01-17T01:46:14.973Z,2.97
2023-01-17T01:48:47.120Z,2.81
2023-01-17T01:51:19.732Z,2.68
2023-01-17T01:53:52.488Z,2.71
2023-01-17T01:56:22.697Z,2.74
2023-01-17T01:58:53.012Z,2.83
2023-01-17T02:01:21.237Z,2.71
2023-01-17T02:03:49.922Z,2.71
2023-01-17T02:06:32.446Z,2.72
2023-01-17T02:09:04.171Z,2.77
2023-01-17T02:11:33.676Z,2.73
2023-01-17T02:14:01.565Z,2.87
2023-01-17T02:16:45.265Z,2.93
2023-01-17T02:19:55.929Z,3.01
2023-01-17T02:22:53.654Z,3.06
2023-01-17T02:25:59.196Z,3.02
2023-01-17T02:28:44.049Z,3.05
2023-01-17T02:31:19.176Z,3.21
2023-01-17T02:33:57.211Z,3.31
2023-01-17T02:36:31.951Z,3.35
2023-01-17T02:39:08.052Z,3.31
2023-01-17T02:41:39.380Z,3.22
2023-01-17T02:44:10.120Z,3.14
2023-01-17T02:46:46.358Z,3.13
2023-01-17T02:49:16.267Z,3.08
2023-01-17T02:51:56.280Z,3.06
2023-01-17T02:54:38.421Z,2.90
2023-01-17T02:57:23.566Z,2.82
2023-01-17T02:59:59.811Z,2.68
2023-01-17T03:02:38.528Z,2.75
2023-01-17T03:05:09.663Z,3.01
2023-01-17T03:07:40.227Z,3.03
2023-01-17T03:10:10.251Z,3.14
2023-01-17T03:12:39.666Z,3.31
2023-01-17T03:15:11.044Z,3.32
2023-01-17T03:17:43.765Z,3.74
2023-01-17T03:20:12.524Z,3.90
2023-01-17T03:22:40.252Z,3.93
2023-01-17T03:25:09.291Z,3.94
2023-01-17T03:27:36.816Z,3.85
2023-01-17T03:30:06.040Z,3.89
2023-01-17T03:32:33.774Z,3.78
2023-01-17T03:35:04.024Z,3.63
2023-01-17T03:37:31.626Z,3.53
2023-01-17T03:40:02.752Z,3.32
2023-01-17T03:42:30.318Z,3.13
2023-01-17T03:44:58.322Z,2.94
2023-01-17T03:47:25.988Z,2.78
2023-01-17T03:49:53.965Z,2.56
2023-01-17T03:52:23.232Z,2.45
2023-01-17T03:54:51.377Z,2.59
2023-01-17T03:57:19.165Z,2.71
2023-01-17T03:59:47.475Z,2.59
2023-01-17T04:02:15.202Z,2.54
2023-01-17T04:04:43.910Z,2.58
2023-01-17T04:07:11.445Z,2.33
2023-01-17T04:09:40.943Z,2.15
2023-01-17T04:12:08.581Z,2.14
2023-01-17T04:14:36.520Z,2.03
2023-01-17T04:17:04.013Z,2.02
2023-01-17T04:19:34.097Z,2.05
2023-01-17T04:22:01.769Z,2.06
2023-01-17T04:24:30.167Z,2.17
2023-01-17T04:26:59.461Z,2.40
2023-01-17T04:29:27.348Z,2.62
2023-01-17T04:31:54.928Z,2.52
2023-01-17T04:34:23.516Z,2.28
2023-01-17T04:36:51.161Z,2.13
2023-01-17T04:39:19.164Z,2.02
2023-01-17T04:41:46.681Z,1.96
2023-01-17T04:44:16.188Z,1.85
2023-01-17T04:46:43.838Z,1.83
2023-01-17T04:49:12.036Z,1.99
2023-01-17T04:51:39.640Z,2.16
2023-01-17T04:54:07.717Z,2.35
2023-01-17T04:56:35.581Z,2.61
2023-01-17T04:59:04.154Z,2.82
2023-01-17T05:01:33.294Z,2.81
2023-01-17T05:04:01.953Z,2.79
2023-01-17T05:06:30.073Z,2.73
2023-01-17T05:08:58.039Z,2.73
2023-01-17T05:11:25.617Z,2.71
2023-01-17T05:13:53.524Z,2.70
2023-01-17T05:16:21.153Z,2.72
2023-01-17T05:18:53.429Z,2.74
2023-01-17T05:21:21.908Z,2.83
2023-01-17T05:23:49.924Z,2.98
2023-01-17T05:26:17.500Z,3.07
2023-01-17T05:28:45.652Z,3.17
2023-01-17T05:31:13.314Z,3.30
2023-01-17T05:33:41.384Z,3.38
2023-01-17T05:36:10.601Z,3.51
2023-01-17T05:38:38.902Z,3.66
2023-01-17T05:41:06.853Z,3.81
2023-01-17T05:43:34.895Z,3.95
2023-01-17T05:46:02.840Z,4.07
2023-01-17T05:48:30.828Z,3.98
2023-01-17T05:50:58.461Z,3.82
2023-01-17T05:53:28.342Z,3.64
2023-01-17T05:55:55.986Z,3.53
2023-01-17T05:58:24.231Z,3.63
2023-01-17T06:00:53.361Z,3.43
2023-01-17T06:03:21.513Z,3.27
2023-01-17T06:05:49.167Z,3.29
2023-01-17T06:08:17.520Z,3.33
2023-01-17T06:10:46.540Z,3.53
2023-01-17T06:13:14.837Z,3.87
2023-01-17T06:15:42.632Z,4.03
2023-01-17T06:18:13.360Z,3.99
2023-01-17T06:20:41.332Z,4.04
2023-01-17T06:23:12.171Z,4.14
2023-01-17T06:25:41.700Z,4.27
2023-01-17T06:28:12.263Z,4.33
2023-01-17T06:30:40.101Z,4.39
2023-01-17T06:33:08.629Z,4.47
2023-01-17T06:35:36.886Z,4.46
2023-01-17T06:38:05.353Z,4.34
2023-01-17T06:40:33.310Z,4.49
2023-01-17T06:43:01.628Z,4.44
2023-01-17T06:45:33.366Z,4.43
2023-01-17T06:48:01.653Z,4.39
2023-01-17T06:50:29.258Z,4.44
2023-01-17T06:52:59.808Z,4.34
2023-01-17T06:55:28.366Z,4.36
2023-01-17T06:57:57.581Z,4.36
2023-01-17T07:00:25.828Z,4.47
2023-01-17T07:02:55.661Z,4.50
2023-01-17T07:05:23.734Z,4.55
2023-01-17T07:07:51.826Z,4.80
2023-01-17T07:10:19.641Z,4.90
2023-01-17T07:12:47.912Z,4.95
2023-01-17T07:15:15.669Z,4.76
2023-01-17T07:17:43.737Z,4.78
2023-01-17T07:20:13.662Z,4.77
2023-01-17T07:22:45.284Z,4.61
2023-01-17T07:25:13.141Z,4.62
2023-01-17T07:27:41.274Z,4.37
2023-01-17T07:30:10.300Z,4.15
2023-01-17T07:32:38.617Z,3.96
2023-01-17T07:35:07.233Z,4.00
2023-01-17T07:37:37.088Z,4.25
2023-01-17T07:40:05.776Z,4.34
2023-01-17T07:42:33.878Z,4.39
2023-01-17T07:45:01.429Z,4.51
2023-01-17T07:47:29.361Z,4.51
2023-01-17T07:49:57.191Z,4.38
2023-01-17T07:52:25.624Z,4.43
2023-01-17T07:54:54.772Z,4.48
2023-01-17T07:57:23.248Z,4.37
2023-01-17T07:59:51.167Z,4.34
2023-01-17T08:02:21.426Z,4.38
2023-01-17T08:04:49.985Z,4.54
2023-01-17T08:07:21.412Z,4.72
2023-01-17T08:09:49.165Z,4.92
2023-01-17T08:12:18.746Z,4.98
2023-01-17T08:14:46.538Z,5.00
2023-01-17T08:17:16.691Z,5.25
2023-01-17T08:19:44.816Z,5.42
2023-01-17T08:22:13.232Z,5.49
2023-01-17T08:24:40.916Z,5.66
2023-01-17T08:27:09.309Z,5.62
2023-01-17T08:29:38.660Z,5.56
2023-01-17T08:32:07.152Z,5.73
2023-01-17T08:34:34.824Z,5.93
2023-01-17T08:37:02.862Z,5.97
2023-01-17T08:39:30.424Z,5.99
2023-01-17T08:41:58.412Z,5.91
2023-01-17T08:44:25.875Z,5.76
2023-01-17T08:46:55.448Z,5.63
2023-01-17T08:49:23.083Z,5.52
2023-01-17T08:51:51.374Z,5.63
2023-01-17T08:54:19.030Z,5.68
2023-01-17T08:56:46.978Z,5.59
2023-01-17T08:59:14.774Z,5.58
2023-01-17T09:01:42.684Z,5.62
2023-01-17T09:04:12.277Z,5.65
2023-01-17T09:06:41.258Z,5.69
2023-01-17T09:09:09.188Z,5.70
2023-01-17T09:11:37.604Z,5.79
2023-01-17T09:14:05.112Z,5.93
2023-01-17T09:16:33.288Z,6.15
2023-01-17T09:19:01.105Z,6.51
2023-01-17T09:21:30.866Z,6.94
2023-01-17T09:23:58.241Z,7.29
2023-01-17T09:26:27.392Z,7.77
2023-01-17T09:28:55.830Z,7.90
2023-01-17T09:31:24.709Z,8.45
2023-01-17T09:33:53.619Z,8.62
2023-01-17T09:36:21.807Z,8.50
2023-01-17T09:38:56.569Z,8.65
2023-01-17T09:41:28.263Z,8.32
2023-01-17T09:44:01.122Z,8.38
2023-01-17T09:46:32.186Z,8.63
2023-01-17T09:49:06.473Z,8.45
2023-01-17T09:51:35.918Z,8.51
2023-01-17T09:54:05.466Z,8.04
2023-01-17T09:56:37.803Z,7.92
2023-01-17T09:59:32.797Z,7.93
2023-01-17T10:02:20.213Z,7.75
2023-01-17T10:05:04.184Z,7.41
2023-01-17T10:07:42.294Z,7.06
2023-01-17T10:10:36.769Z,6.79
2023-01-17T10:13:17.051Z,6.84
2023-01-17T10:15:58.588Z,6.65
2023-01-17T10:19:04.540Z,6.71
2023-01-17T10:21:55.893Z,7.04
2023-01-17T10:24:47.372Z,7.06
2023-01-17T10:27:22.112Z,7.01
2023-01-17T10:29:51.675Z,7.25
2023-01-17T10:32:22.746Z,7.04
2023-01-17T10:34:52.893Z,6.79
2023-01-17T10:37:26.150Z,7.06
2023-01-17T10:39:58.197Z,7.06
2023-01-17T10:42:37.598Z,6.78
2023-01-17T10:45:15.380Z,6.72
2023-01-17T10:47:48.468Z,6.47
2023-01-17T10:50:16.571Z,6.62
2023-01-17T10:52:51.608Z,6.71
2023-01-17T10:55:34.540Z,7.31
2023-01-17T10:58:03.791Z,7.19
2023-01-17T11:00:40.569Z,7.41
2023-01-17T11:03:11.213Z,7.72
2023-01-17T11:05:40.036Z,7.91
2023-01-17T11:08:08.858Z,7.88
2023-01-17T11:10:40.138Z,7.98
2023-01-17T11:13:25.151Z,7.97
2023-01-17T11:15:56.810Z,8.19
2023-01-17T11:18:27.194Z,8.20
2023-01-17T11:21:07.880Z,8.26
2023-01-17T11:23:36.156Z,8.17
2023-01-17T11:26:07.082Z,8.11
2023-01-17T11:28:38.089Z,8.29
2023-01-17T11:31:07.844Z,8.73
2023-01-17T11:33:38.477Z,8.67
2023-01-17T11:36:14.828Z,8.62
2023-01-17T11:38:54.910Z,9.13
2023-01-17T11:41:23.293Z,9.02
2023-01-17T11:43:54.908Z,8.68
2023-01-17T11:46:24.554Z,8.06
2023-01-17T11:48:56.175Z,8.07
2023-01-17T11:51:29.723Z,7.98
2023-01-17T11:54:15.146Z,8.15
2023-01-17T11:56:43.977Z,8.40
2023-01-17T11:59:24.999Z,8.42
2023-01-17T12:02:05.008Z,8.65
2023-01-17T12:04:38.822Z,8.67
2023-01-17T12:07:27.635Z,8.68
2023-01-17T12:10:02.714Z,9.14
2023-01-17T12:12:44.114Z,9.16
2023-01-17T12:15:29.462Z,9.43
2023-01-17T12:18:21.923Z,9.57
2023-01-17T12:20:57.059Z,9.55
2023-01-17T12:23:39.451Z,9.51
2023-01-17T12:26:21.612Z,9.64
2023-01-17T12:29:22.986Z,9.88
2023-01-17T12:32:04.863Z,9.25
2023-01-17T12:34:37.327Z,9.17
2023-01-17T12:37:13.528Z,9.13
2023-01-17T12:39:55.252Z,8.67
2023-01-17T12:42:31.277Z,8.44
2023-01-17T12:45:04.508Z,8.31
2023-01-17T12:47:37.086Z,7.92
2023-01-17T12:50:15.834Z,7.94
2023-01-17T12:52:53.646Z,8.11
2023-01-17T12:55:34.619Z,7.97
2023-01-17T12:58:06.292Z,8.04
2023-01-17T13:00:39.017Z,8.57
2023-01-17T13:03:18.281Z,8.46
2023-01-17T13:05:47.596Z,8.33
2023-01-17T13:08:22.372Z,8.24
2023-01-17T13:10:56.469Z,8.20
2023-01-17T13:13:26.478Z,8.32
2023-01-17T13:15:58.188Z,8.02
2023-01-17T13:18:29.294Z,7.87
2023-01-17T13:21:30.039Z,7.72
2023-01-17T13:24:26.202Z,7.56
2023-01-17T13:27:11.890Z,7.65
2023-01-17T13:29:50.760Z,7.63
2023-01-17T13:32:40.400Z,7.77
2023-01-17T13:35:22.377Z,7.59
2023-01-17T13:38:08.364Z,7.56
2023-01-17T13:40:49.132Z,7.49
2023-01-17T13:43:22.739Z,7.11
2023-01-17T13:45:55.841Z,7.13
2023-01-17T13:48:29.886Z,7.38
2023-01-17T13:51:00.684Z,7.03
2023-01-17T13:53:56.812Z,7.19
2023-01-17T13:56:32.868Z,7.23
2023-01-17T13:59:30.401Z,7.19
2023-01-17T14:01:58.285Z,7.09
2023-01-17T14:04:59.626Z,7.24
2023-01-17T14:07:34.658Z,7.08
2023-01-17T14:10:29.825Z,6.99
2023-01-17T14:12:57.655Z,6.94
2023-01-17T14:15:27.497Z,7.00
2023-01-17T14:17:59.306Z,6.85
2023-01-17T14:20:39.738Z,6.80
2023-01-17T14:23:23.435Z,6.73
2023-01-17T14:25:52.865Z,6.65
2023-01-17T14:28:28.641Z,6.58
2023-01-17T14:30:59.585Z,6.45
2023-01-17T14:33:29.321Z,6.40
2023-01-17T14:35:58.996Z,6.49
2023-01-17T14:38:29.754Z,6.48
2023-01-17T14:41:01.116Z,6.53
2023-01-17T14:43:31.004Z,6.18
2023-01-17T14:46:01.673Z,5.85
2023-01-17T14:48:29.724Z,5.70
2023-01-17T14:50:58.283Z,5.70
2023-01-17T14:53:28.185Z,5.57
2023-01-17T14:55:59.730Z,5.36
2023-01-17T14:58:29.738Z,5.25
2023-01-17T15:01:01.079Z,5.05
2023-01-17T15:03:30.276Z,4.95
2023-01-17T15:06:09.736Z,4.82
2023-01-17T15:08:39.031Z,4.89
2023-01-17T15:11:10.381Z,5.11
2023-01-17T15:13:44.609Z,4.99
2023-01-17T15:16:23.291Z,4.87
2023-01-17T15:18:51.468Z,4.94
2023-01-17T15:21:21.520Z,4.95
2023-01-17T15:23:53.666Z,4.89
2023-01-17T15:26:25.004Z,5.08
2023-01-17T15:28:53.547Z,4.81
2023-01-17T15:31:25.401Z,4.51
2023-01-17T15:33:56.365Z,4.28
2023-01-17T15:36:28.267Z,3.92
2023-01-17T15:39:00.292Z,3.70
2023-01-17T15:41:32.361Z,3.71
2023-01-17T15:44:00.502Z,3.85
2023-01-17T15:46:32.075Z,3.90
2023-01-17T15:49:17.609Z,3.84
2023-01-17T15:51:52.195Z,3.70
2023-01-17T15:54:50.203Z,3.70
2023-01-17T15:57:22.737Z,3.70
2023-01-17T15:59:57.344Z,3.79
2023-01-17T16:02:43.784Z,3.85
2023-01-17T16:05:36.055Z,3.87
2023-01-17T16:08:38.986Z,3.88
2023-01-17T16:11:11.317Z,3.85
2023-01-17T16:13:39.750Z,3.84
2023-01-17T16:16:19.394Z,3.86
2023-01-17T16:18:48.548Z,3.95
2023-01-17T16:21:25.718Z,3.94
2023-01-17T16:23:54.185Z,3.94
2023-01-17T16:26:23.816Z,4.14
2023-01-17T16:28:54.957Z,4.37
2023-01-17T16:31:22.741Z,4.49
2023-01-17T16:33:51.044Z,4.29
2023-01-17T16:36:19.051Z,4.26
2023-01-17T16:38:50.123Z,4.31
2023-01-17T16:41:18.095Z,4.31
2023-01-17T16:43:57.929Z,3.94
2023-01-17T16:46:25.991Z,3.18
2023-01-17T16:48:54.436Z,2.96
2023-01-17T16:51:22.174Z,2.96
2023-01-17T16:53:50.135Z,2.97
2023-01-17T16:56:19.465Z,2.87
2023-01-17T16:58:51.119Z,2.88
2023-01-17T17:01:19.363Z,2.98
2023-01-17T17:03:47.732Z,3.07
2023-01-17T17:06:15.430Z,3.16
2023-01-17T17:08:43.570Z,3.38
2023-01-17T17:11:13.844Z,3.67
2023-01-17T17:13:42.993Z,3.75
2023-01-17T17:16:14.489Z,3.87
2023-01-17T17:18:43.346Z,3.73
2023-01-17T17:21:11.132Z,3.71
2023-01-17T17:23:39.108Z,3.55
2023-01-17T17:26:07.126Z,3.43
2023-01-17T17:28:35.196Z,3.19
2023-01-17T17:31:08.904Z,2.81
2023-01-17T17:33:38.807Z,2.81
2023-01-17T17:36:08.350Z,2.97
2023-01-17T17:38:37.007Z,3.05
2023-01-17T17:41:06.813Z,2.86
2023-01-17T17:43:39.289Z,2.91
2023-01-17T17:46:08.083Z,2.91
2023-01-17T17:48:36.678Z,2.36
2023-01-17T17:51:06.672Z,1.90
2023-01-17T17:53:34.710Z,1.89
2023-01-17T17:56:04.324Z,1.80
2023-01-17T17:58:34.479Z,1.60
2023-01-17T18:01:04.355Z,0.96
2023-01-17T18:03:32.753Z,1.22
2023-01-17T18:06:07.714Z,1.45
2023-01-17T18:08:37.254Z,1.56
2023-01-17T18:11:07.082Z,1.69
2023-01-17T18:13:35.259Z,1.51
2023-01-17T18:16:04.722Z,1.12
2023-01-17T18:18:33.648Z,1.28
2023-01-17T18:21:12.282Z,1.29
2023-01-17T18:23:42.036Z,1.41
2023-01-17T18:26:16.797Z,1.35
2023-01-17T18:28:44.955Z,1.16
2023-01-17T18:31:12.804Z,0.99
2023-01-17T18:33:41.118Z,1.16
2023-01-17T18:36:11.624Z,1.27
2023-01-17T18:38:41.141Z,1.30
2023-01-17T18:41:11.448Z,1.20
2023-01-17T18:43:39.734Z,1.25
2023-01-17T18:46:08.682Z,1.19
2023-01-17T18:48:37.458Z,1.16
2023-01-17T18:51:07.310Z,1.03
2023-01-17T18:53:38.253Z,1.11
2023-01-17T18:56:08.430Z,1.29
2023-01-17T18:58:37.618Z,1.29
2023-01-17T19:01:10.378Z,1.12
2023-01-17T19:03:40.123Z,1.16
2023-01-17T19:06:10.092Z,1.04
2023-01-17T19:08:39.740Z,1.01
2023-01-17T19:11:07.558Z,0.91
2023-01-17T19:13:37.546Z,0.83
2023-01-17T19:16:07.547Z,0.75
2023-01-17T19:18:36.113Z,0.76
2023-01-17T19:21:06.146Z,0.68
2023-01-17T19:23:34.956Z,0.67
2023-01-17T19:26:05.150Z,0.56
2023-01-17T19:28:35.391Z,0.51
2023-01-17T19:31:04.933Z,0.41
2023-01-17T19:33:34.205Z,0.27
2023-01-17T19:36:02.959Z,0.65
2023-01-17T19:38:31.588Z,0.70
2023-01-17T19:41:09.469Z,0.65
2023-01-17T19:43:38.324Z,0.66
2023-01-17T19:46:07.682Z,0.68
2023-01-17T19:48:36.565Z,0.62
2023-01-17T19:51:06.228Z,0.59
2023-01-17T19:53:34.753Z,0.67
2023-01-17T19:56:05.632Z,0.66
2023-01-17T19:58:35.435Z,0.62
2023-01-17T20:01:08.331Z,0.73
2023-01-17T20:03:37.168Z,0.85
2023-01-17T20:06:06.211Z,0.92
2023-01-17T20:08:35.463Z,0.82
2023-01-17T20:11:04.958Z,0.70
2023-01-17T20:13:34.873Z,0.53
2023-01-17T20:16:03.337Z,0.73
2023-01-17T20:18:32.791Z,0.51
2023-01-17T20:21:03.833Z,0.45
2023-01-17T20:23:33.848Z,0.46
2023-01-17T20:26:01.831Z,0.46
2023-01-17T20:28:31.277Z,0.31
2023-01-17T20:31:05.377Z,0.11
2023-01-17T20:33:33.730Z,0.18
2023-01-17T20:36:10.164Z,0.20
2023-01-17T20:38:39.328Z,0.06
2023-01-17T20:41:06.974Z,0.00
2023-01-17T20:43:35.277Z,-0.18
2023-01-17T20:46:05.786Z,0.14
2023-01-17T20:48:34.535Z,0.12
2023-01-17T20:51:06.757Z,0.16
2023-01-17T20:53:35.038Z,0.22
2023-01-17T20:56:03.157Z,0.09
2023-01-17T20:58:31.667Z,0.06
2023-01-17T21:00:59.519Z,0.18
2023-01-17T21:03:29.512Z,0.36
2023-01-17T21:06:00.908Z,0.45
2023-01-17T21:08:29.370Z,0.33
2023-01-17T21:10:57.359Z,-0.13
2023-01-17T21:13:26.627Z,-0.55
2023-01-17T21:15:54.688Z,-0.46
2023-01-17T21:18:25.168Z,-0.55
2023-01-17T21:20:54.396Z,-0.37
2023-01-17T21:23:23.003Z,-0.09
2023-01-17T21:25:58.125Z,-0.47
2023-01-17T21:28:28.389Z,-0.32
2023-01-17T21:30:56.627Z,-0.19
2023-01-17T21:33:26.798Z,-0.01
2023-01-17T21:35:55.872Z,-0.03
2023-01-17T21:38:23.987Z,0.11
2023-01-17T21:40:56.549Z,0.13
2023-01-17T21:43:24.563Z,0.25
2023-01-17T21:45:52.326Z,0.35
2023-01-17T21:48:20.697Z,0.22
2023-01-17T21:50:48.490Z,0.33
2023-01-17T21:53:18.334Z,0.42
2023-01-17T21:55:46.244Z,0.56
2023-01-17T21:58:15.294Z,0.42
2023-01-17T22:00:43.129Z,0.02
2023-01-17T22:03:11.480Z,-0.40
2023-01-17T22:05:39.271Z,0.01
2023-01-17T22:08:07.320Z,0.07
2023-01-17T22:10:36.434Z,0.02
2023-01-17T22:13:04.560Z,0.09
2023-01-17T22:15:32.154Z,0.13
2023-01-17T22:18:00.543Z,0.09
2023-01-17T22:20:28.095Z,0.05
2023-01-17T22:22:56.398Z,-0.04
2023-01-17T22:25:24.224Z,-0.01
2023-01-17T22:27:53.954Z,0.05
2023-01-17T22:30:21.758Z,0.20
2023-01-17T22:32:49.706Z,0.24
2023-01-17T22:35:17.436Z,0.29
2023-01-17T22:37:45.820Z,0.41
2023-01-17T22:40:13.961Z,0.28
2023-01-17T22:42:41.934Z,0.31
2023-01-17T22:45:12.179Z,0.37
2023-01-17T22:47:40.651Z,0.29
2023-01-17T22:50:09.449Z,-0.05
2023-01-17T22:52:37.671Z,-0.21
2023-01-17T22:55:06.343Z,-0.02
2023-01-17T22:57:34.621Z,0.22
2023-01-17T23:00:02.321Z,0.08
2023-01-17T23:02:32.195Z,0.03
2023-01-17T23:04:59.879Z,0.08
2023-01-17T23:07:28.177Z,0.08
2023-01-17T23:09:55.815Z,0.12
2023-01-17T23:12:23.890Z,0.10
2023-01-17T23:14:51.572Z,0.09
2023-01-17T23:17:21.803Z,0.09
2023-01-17T23:19:53.112Z,0.18
2023-01-17T23:22:23.484Z,0.19
2023-01-17T23:24:52.681Z,0.21
2023-01-17T23:27:22.913Z,0.28
2023-01-17T23:29:50.711Z,0.30
2023-01-17T23:32:18.659Z,0.10
2023-01-17T23:34:46.291Z,0.09
2023-01-17T23:37:16.122Z,0.29
2023-01-17T23:39:43.662Z,0.45
2023-01-17T23:42:11.823Z,0.48
2023-01-17T23:44:39.381Z,0.46
2023-01-17T23:47:07.401Z,0.49
2023-01-17T23:49:34.996Z,0.68
2023-01-17T23:52:05.344Z,0.84
2023-01-17T23:54:34.435Z,0.79
2023-01-17T23:57:02.648Z,0.84
2023-01-17T23:59:30.605Z,0.72
